Time;durP1;ratioP1;P1;durP2;ratioP2;P2;SDS_P1;SDS_P2;PMS_P1;PMS_P2;Temp;Humidity;BMP_temperature;BMP_pressure;BME280_temperature;BME280_humidity;BME280_pressure;Samples;Min_cycle;Max_cycle;Signal;HPM_P1;HPM_P2
2023/08/27 00:01:32;;;;;;;7.00;3.55;;;;;;;14.19;100.00;100833.44;5071195;28;20079;-54
2023/08/27 00:04:00;;;;;;;5.60;3.60;;;;;;;14.23;100.00;100828.72;5071482;28;20048;-54
2023/08/27 00:06:30;;;;;;;8.00;3.80;;;;;;;14.20;100.00;100828.97;5071128;28;20102;-55
2023/08/27 00:09:01;;;;;;;7.47;4.40;;;;;;;14.18;100.00;100826.47;5071535;28;20036;-53
2023/08/27 00:11:29;;;;;;;7.72;4.50;;;;;;;14.16;100.00;100814.31;5071363;28;20094;-53
2023/08/27 00:13:58;;;;;;;7.70;4.63;;;;;;;14.12;100.00;100811.06;5071229;28;20044;-52
2023/08/27 00:16:26;;;;;;;8.02;4.32;;;;;;;14.11;100.00;100808.56;5071129;28;20503;-55
2023/08/27 00:18:54;;;;;;;6.13;3.95;;;;;;;14.14;100.00;100801.22;5071297;28;20462;-53
2023/08/27 00:21:22;;;;;;;6.35;4.55;;;;;;;14.23;100.00;100807.56;5071277;28;20127;-54
2023/08/27 00:23:52;;;;;;;7.60;4.20;;;;;;;14.27;100.00;100797.59;5071447;28;20037;-55
2023/08/27 00:26:20;;;;;;;6.88;4.20;;;;;;;14.28;100.00;100796.63;5071244;28;20051;-54
2023/08/27 00:28:48;;;;;;;6.93;4.68;;;;;;;14.29;100.00;100799.16;5070675;28;20511;-53
2023/08/27 00:31:16;;;;;;;7.47;4.22;;;;;;;14.23;100.00;100804.91;5070365;28;20049;-53
2023/08/27 00:33:44;;;;;;;8.00;3.60;;;;;;;14.23;100.00;100812.84;5070648;28;20175;-54
2023/08/27 00:36:12;;;;;;;7.45;3.78;;;;;;;14.29;100.00;100809.72;5071025;28;20441;-55
2023/08/27 00:38:40;;;;;;;6.85;3.83;;;;;;;14.25;100.00;100808.31;5071039;28;20048;-53
2023/08/27 00:41:10;;;;;;;7.75;3.80;;;;;;;14.18;100.00;100801.84;5071152;28;20045;-52
2023/08/27 00:43:40;;;;;;;4.95;3.40;;;;;;;14.16;100.00;100795.81;5070959;28;20037;-53
2023/08/27 00:46:08;;;;;;;6.03;3.90;;;;;;;14.28;100.00;100796.63;5070937;28;20049;-54
2023/08/27 00:48:37;;;;;;;6.25;4.20;;;;;;;14.22;100.00;100795.31;5071227;28;20515;-53
2023/08/27 00:51:05;;;;;;;6.97;4.20;;;;;;;14.20;100.00;100794.59;5071012;28;20443;-54
2023/08/27 00:53:34;;;;;;;6.60;4.30;;;;;;;14.20;100.00;100795.44;5073413;28;20044;-54
2023/08/27 00:56:04;;;;;;;6.75;3.80;;;;;;;14.25;100.00;100800.38;5074681;28;20062;-54
2023/08/27 00:58:34;;;;;;;7.80;3.65;;;;;;;14.25;100.00;100799.50;5074677;28;20059;-53
2023/08/27 01:01:04;;;;;;;9.60;3.72;;;;;;;14.15;100.00;100788.84;5074724;28;20557;-52
2023/08/27 01:03:34;;;;;;;6.25;4.03;;;;;;;14.16;100.00;100788.72;5074679;28;20101;-53
2023/08/27 01:06:02;;;;;;;5.78;3.58;;;;;;;14.20;100.00;100789.31;5074485;28;20044;-53
2023/08/27 01:08:43;;;;;;;7.70;3.70;;;;;;;14.14;100.00;100781.91;5074173;28;20052;-53
2023/08/27 01:11:18;;;;;;;8.40;3.35;;;;;;;14.13;100.00;100778.38;5073882;28;20044;-52
2023/08/27 01:13:53;;;;;;;5.40;3.13;;;;;;;14.12;100.00;100775.88;5072893;28;20044;-52
2023/08/27 01:16:27;;;;;;;5.03;3.10;;;;;;;14.13;100.00;100772.28;5074192;28;20044;-53
2023/08/27 01:18:57;;;;;;;6.20;3.72;;;;;;;14.12;100.00;100754.72;5074156;28;20048;-52
2023/08/27 01:21:27;;;;;;;5.20;2.80;;;;;;;14.12;100.00;100754.72;5074072;28;20047;-54
2023/08/27 01:23:55;;;;;;;4.53;2.78;;;;;;;14.14;100.00;100745.69;5074314;28;20724;-53
2023/08/27 01:26:32;;;;;;;4.45;2.30;;;;;;;14.14;100.00;100742.22;5073745;28;20067;-54
2023/08/27 01:29:06;;;;;;;4.97;2.58;;;;;;;14.15;100.00;100743.88;5073480;28;20059;-53
2023/08/27 01:31:42;;;;;;;5.03;2.50;;;;;;;14.25;100.00;100747.47;5073465;28;20508;-53
2023/08/27 01:34:13;;;;;;;3.63;2.30;;;;;;;14.22;100.00;100742.44;5073751;28;20055;-54
2023/08/27 01:36:43;;;;;;;6.03;2.70;;;;;;;14.28;100.00;100736.63;5074102;28;20419;-53
2023/08/27 01:39:13;;;;;;;4.10;2.45;;;;;;;14.35;100.00;100729.84;5073986;28;20068;-54
2023/08/27 01:41:41;;;;;;;4.55;2.60;;;;;;;14.33;100.00;100729.16;5073723;28;20052;-55
2023/08/27 01:44:09;;;;;;;4.85;2.40;;;;;;;14.36;100.00;100718.31;5073716;28;20396;-52
2023/08/27 01:46:38;;;;;;;4.93;2.30;;;;;;;14.36;100.00;100714.84;5073734;28;20044;-54
2023/08/27 01:49:06;;;;;;;4.93;2.47;;;;;;;14.39;100.00;100711.94;5073758;28;20053;-53
2023/08/27 01:51:34;;;;;;;7.25;2.60;;;;;;;14.43;100.00;100708.06;5073597;28;20131;-55
2023/08/27 01:54:04;;;;;;;3.85;2.10;;;;;;;14.37;100.00;100714.69;5073612;28;20523;-55
2023/08/27 01:56:32;;;;;;;4.00;2.20;;;;;;;14.45;100.00;100711.44;5073553;28;20036;-55
2023/08/27 01:59:00;;;;;;;5.20;2.50;;;;;;;14.45;100.00;100708.78;5073315;28;20058;-54
2023/08/27 02:01:28;;;;;;;5.75;2.67;;;;;;;14.39;100.00;100704.00;5073475;28;20140;-54
2023/08/27 02:03:57;;;;;;;6.40;2.60;;;;;;;14.35;100.00;100708.69;5072707;28;20230;-53
2023/08/27 02:06:25;;;;;;;5.32;2.28;;;;;;;14.36;100.00;100728.88;5073248;28;20048;-55
2023/08/27 02:08:53;;;;;;;5.90;2.70;;;;;;;14.32;100.00;100727.47;5073256;28;20041;-54
2023/08/27 02:11:23;;;;;;;4.75;2.67;;;;;;;14.35;100.00;100727.19;5073482;28;20512;-54
2023/08/27 02:13:51;;;;;;;5.30;2.50;;;;;;;14.32;100.00;100722.16;5073105;28;20044;-54
2023/08/27 02:16:19;;;;;;;6.97;2.75;;;;;;;14.36;100.00;100734.19;5073195;28;20048;-56
2023/08/27 02:18:47;;;;;;;3.78;2.55;;;;;;;14.35;100.00;100736.97;5073047;28;20121;-53
2023/08/27 02:21:16;;;;;;;6.47;3.13;;;;;;;14.30;100.00;100740.00;5071726;28;20041;-54
2023/08/27 02:23:44;;;;;;;5.97;3.03;;;;;;;14.28;100.00;100731.34;5073086;28;20043;-54
2023/08/27 02:26:12;;;;;;;5.80;2.85;;;;;;;14.23;100.00;100732.69;5073086;28;20553;-55
2023/08/27 02:28:42;;;;;;;6.25;3.33;;;;;;;14.18;100.00;100723.31;5072930;28;20143;-55
2023/08/27 02:31:10;;;;;;;5.78;3.53;;;;;;;14.18;100.00;100718.03;5072950;28;20470;-53
2023/08/27 02:33:38;;;;;;;5.85;3.08;;;;;;;14.23;100.00;100717.63;5072795;28;20091;-54
2023/08/27 02:36:07;;;;;;;6.25;3.58;;;;;;;14.27;100.00;100716.41;5072758;28;20056;-53
2023/08/27 02:38:35;;;;;;;6.78;4.03;;;;;;;14.26;100.00;100712.13;5072627;28;20096;-52
2023/08/27 02:41:06;;;;;;;7.35;4.03;;;;;;;14.25;100.00;100705.16;5071384;28;20132;-54
2023/08/27 02:43:34;;;;;;;7.43;3.50;;;;;;;14.33;100.00;100705.34;5072637;28;20052;-52
2023/08/27 02:46:04;;;;;;;8.32;3.63;;;;;;;14.33;100.00;100705.34;5072443;28;20446;-55
2023/08/27 02:48:32;;;;;;;6.93;4.10;;;;;;;14.23;100.00;100712.34;5072496;28;20131;-54
2023/08/27 02:51:00;;;;;;;6.40;3.92;;;;;;;14.20;100.00;100718.72;5072686;28;20048;-54
2023/08/27 02:53:29;;;;;;;6.20;3.90;;;;;;;14.20;100.00;100713.44;5072288;28;20053;-54
2023/08/27 02:55:57;;;;;;;7.45;4.25;;;;;;;14.17;100.00;100704.94;5072308;28;20044;-55
2023/08/27 02:58:25;;;;;;;6.45;3.92;;;;;;;14.12;100.00;100709.75;5071049;28;20044;-53
2023/08/27 03:00:54;;;;;;;7.40;4.10;;;;;;;14.21;100.00;100698.44;5072129;28;20119;-55
2023/08/27 03:03:23;;;;;;;7.45;4.30;;;;;;;14.15;100.00;100691.00;5072153;28;20674;-53
2023/08/27 03:05:51;;;;;;;6.00;3.88;;;;;;;14.10;100.00;100695.84;5071439;28;20036;-54
2023/08/27 03:08:20;;;;;;;7.82;3.90;;;;;;;14.06;100.00;100697.88;5071603;28;20048;-55
2023/08/27 03:10:48;;;;;;;8.07;4.40;;;;;;;14.07;100.00;100696.06;5071696;28;20044;-54
2023/08/27 03:13:16;;;;;;;6.78;4.05;;;;;;;14.01;100.00;100694.78;5071669;28;20045;-55
2023/08/27 03:15:44;;;;;;;7.47;4.03;;;;;;;13.99;100.00;100694.91;5071826;28;20056;-55
2023/08/27 03:18:12;;;;;;;6.70;3.97;;;;;;;14.07;100.00;100698.72;5072091;28;20071;-54
2023/08/27 03:20:42;;;;;;;9.13;4.07;;;;;;;14.05;100.00;100701.50;5072025;28;20056;-53
2023/08/27 03:23:10;;;;;;;7.13;4.03;;;;;;;13.95;100.00;100719.91;5072001;28;20430;-53
2023/08/27 03:25:38;;;;;;;7.40;3.92;;;;;;;14.00;100.00;100712.47;5071790;28;20059;-56
2023/08/27 03:28:06;;;;;;;6.55;3.85;;;;;;;13.96;100.00;100721.59;5071720;28;20396;-54
2023/08/27 03:30:35;;;;;;;6.38;3.42;;;;;;;14.01;100.00;100724.69;5071564;28;20763;-55
2023/08/27 03:33:03;;;;;;;5.80;3.40;;;;;;;13.94;100.00;100728.81;5071650;28;20058;-54
2023/08/27 03:35:31;;;;;;;6.93;3.35;;;;;;;14.01;100.00;100729.16;5071960;28;20045;-54
2023/08/27 03:38:01;;;;;;;6.05;3.35;;;;;;;14.00;100.00;100728.31;5071598;28;20072;-54
2023/08/27 03:40:30;;;;;;;8.60;3.65;;;;;;;14.06;100.00;100731.41;5071644;28;20115;-53
2023/08/27 03:42:58;;;;;;;6.97;3.17;;;;;;;14.04;100.00;100734.19;5071534;28;20053;-54
2023/08/27 03:45:27;;;;;;;7.40;3.67;;;;;;;14.06;100.00;100731.41;5071402;28;20487;-51
2023/08/27 03:47:55;;;;;;;5.35;3.22;;;;;;;14.02;100.00;100736.13;5067550;28;20736;-53
2023/08/27 03:50:23;;;;;;;6.20;3.03;;;;;;;13.98;100.00;100739.97;5068937;28;20556;-52
2023/08/27 03:52:51;;;;;;;6.82;2.97;;;;;;;13.88;100.00;100747.81;5071330;28;20048;-53
2023/08/27 03:55:21;;;;;;;5.40;2.88;;;;;;;13.97;100.00;100754.97;5069938;28;20050;-53
2023/08/27 03:57:50;;;;;;;7.65;3.22;;;;;;;13.92;100.00;100762.47;5068051;28;20060;-53
2023/08/27 04:00:19;;;;;;;7.63;3.78;;;;;;;13.88;100.00;100760.19;5068115;28;20040;-54
2023/08/27 04:02:47;;;;;;;5.82;3.20;;;;;;;13.86;100.00;100749.72;5068986;28;20049;-52
2023/08/27 04:05:15;;;;;;;6.25;3.58;;;;;;;13.85;100.00;100737.47;5071480;28;20075;-52
2023/08/27 04:07:43;;;;;;;7.95;3.90;;;;;;;13.90;100.00;100724.72;5067036;28;20502;-53
2023/08/27 04:10:11;;;;;;;8.73;3.85;;;;;;;13.85;100.00;100700.47;5068105;28;20600;-53
2023/08/27 04:12:41;;;;;;;9.60;3.92;;;;;;;13.84;100.00;100706.75;5070653;28;20048;-53
2023/08/27 04:15:10;;;;;;;8.07;3.83;;;;;;;13.82;100.00;100709.47;5071098;28;20131;-52
2023/08/27 04:17:38;;;;;;;8.25;4.35;;;;;;;13.86;100.00;100715.38;5069160;28;20087;-54
2023/08/27 04:20:08;;;;;;;7.93;3.80;;;;;;;13.94;100.00;100718.22;5068117;28;20048;-53
2023/08/27 04:22:36;;;;;;;6.82;3.78;;;;;;;13.92;100.00;100719.31;5070000;28;20044;-54
2023/08/27 04:25:06;;;;;;;7.50;3.90;;;;;;;13.95;100.00;100735.78;5071426;28;20045;-54
2023/08/27 04:27:34;;;;;;;8.38;4.00;;;;;;;13.88;100.00;100739.88;5071324;28;20041;-54
2023/08/27 04:30:08;;;;;;;8.25;4.38;;;;;;;13.86;100.00;100741.81;5071432;28;20045;-53
2023/08/27 04:32:37;;;;;;;6.85;3.78;;;;;;;13.91;100.00;100755.50;5071683;28;20139;-54
2023/08/27 04:35:05;;;;;;;7.35;4.32;;;;;;;13.85;100.00;100750.69;5074966;28;20033;-54
2023/08/27 04:37:34;;;;;;;9.57;4.18;;;;;;;13.85;100.00;100740.13;5075191;28;20044;-54
2023/08/27 04:40:03;;;;;;;7.90;4.10;;;;;;;13.83;100.00;100742.88;5073598;28;20209;-53
2023/08/27 04:42:31;;;;;;;9.43;3.60;;;;;;;13.89;100.00;100730.16;5070759;28;20041;-52
2023/08/27 04:44:59;;;;;;;8.80;3.60;;;;;;;13.89;100.00;100730.16;5072760;28;20426;-51
2023/08/27 04:47:28;;;;;;;7.03;3.67;;;;;;;13.88;100.00;100734.59;5072241;28;20399;-54
2023/08/27 04:49:56;;;;;;;6.75;3.28;;;;;;;13.80;100.00;100732.56;5071250;28;20055;-53
2023/08/27 04:52:24;;;;;;;7.13;3.40;;;;;;;13.91;100.00;100736.16;5074763;28;20102;-53
2023/08/27 04:54:59;;;;;;;7.97;4.15;;;;;;;13.86;100.00;100725.94;5074599;28;20426;-55
2023/08/27 04:57:27;;;;;;;11.93;3.38;;;;;;;13.81;100.00;100722.81;5074606;28;20044;-53
2023/08/27 04:59:56;;;;;;;6.95;3.38;;;;;;;13.88;100.00;100708.16;5071775;28;20407;-54
2023/08/27 05:02:24;;;;;;;6.63;3.15;;;;;;;14.00;100.00;100712.47;5070443;28;20044;-53
2023/08/27 05:04:53;;;;;;;5.93;2.97;;;;;;;14.13;100.00;100709.63;5073624;28;20391;-68
2023/08/27 05:07:24;;;;;;;5.70;3.03;;;;;;;14.13;100.00;100711.44;5074233;28;20121;-68
2023/08/27 05:09:54;;;;;;;6.68;2.58;;;;;;;14.05;100.00;100708.59;5075626;28;20044;-68
2023/08/27 05:12:22;;;;;;;7.32;2.58;;;;;;;13.94;100.00;100717.41;5074487;28;20049;-68
2023/08/27 05:14:51;;;;;;;4.82;2.35;;;;;;;13.85;100.00;100717.19;5072481;28;20079;-68
2023/08/27 05:17:21;;;;;;;6.78;2.83;;;;;;;13.93;100.00;100721.84;5075844;28;20045;-68
2023/08/27 05:19:49;;;;;;;6.55;2.35;;;;;;;13.80;100.00;100727.28;5075556;28;20049;-68
2023/08/27 05:26:36;;;;;;;6.30;2.40;;;;;;;13.64;100.00;100738.25;5075582;28;20498;-67
2023/08/27 05:29:04;;;;;;;5.53;2.55;;;;;;;13.76;100.00;100740.88;5075957;28;20050;-67
2023/08/27 05:31:32;;;;;;;5.97;2.50;;;;;;;13.76;100.00;100725.84;5075908;28;20057;-67
2023/08/27 05:34:01;;;;;;;5.68;2.78;;;;;;;13.77;100.00;100718.75;5075885;28;20144;-67
2023/08/27 05:36:29;;;;;;;6.82;2.38;;;;;;;13.76;100.00;100719.75;5075429;28;20536;-67
2023/08/27 05:38:58;;;;;;;6.45;2.30;;;;;;;13.76;100.00;100719.75;5074590;28;20418;-66
2023/08/27 05:41:26;;;;;;;4.25;2.35;;;;;;;13.76;100.00;100714.44;5075549;28;20044;-66
2023/08/27 05:43:56;;;;;;;4.35;2.20;;;;;;;13.78;100.00;100712.50;5075662;28;20368;-66
2023/08/27 05:46:27;;;;;;;4.13;2.00;;;;;;;13.91;100.00;100715.84;5074865;28;20070;-52
2023/08/27 05:48:55;;;;;;;4.82;2.30;;;;;;;13.89;100.00;100714.28;5073493;28;20519;-52
2023/08/27 05:51:23;;;;;;;4.53;2.22;;;;;;;13.91;100.00;100707.91;5073813;28;20052;-53
2023/08/27 05:53:51;;;;;;;5.47;2.10;;;;;;;13.94;100.00;100697.09;5073503;28;20102;-52
2023/08/27 05:56:19;;;;;;;5.45;1.90;;;;;;;13.98;100.00;100703.78;5073881;28;20048;-51
2023/08/27 05:58:48;;;;;;;2.95;1.75;;;;;;;13.91;100.00;100699.97;5073485;28;20058;-53
2023/08/27 06:01:17;;;;;;;5.00;2.00;;;;;;;13.93;100.00;100705.97;5072280;28;20063;-51
2023/08/27 06:03:45;;;;;;;3.75;2.05;;;;;;;13.94;100.00;100710.31;5073423;28;20113;-53
2023/08/27 06:06:14;;;;;;;4.03;1.90;;;;;;;14.01;100.00;100711.47;5073420;28;20098;-54
2023/08/27 06:08:42;;;;;;;4.50;2.30;;;;;;;14.08;100.00;100703.03;5073224;28;20056;-53
2023/08/27 06:11:10;;;;;;;4.95;2.30;;;;;;;14.09;100.00;100699.44;5073171;28;20053;-53
2023/08/27 06:13:38;;;;;;;7.63;2.53;;;;;;;14.16;100.00;100706.72;5073144;28;20087;-52
2023/08/27 06:16:06;;;;;;;6.18;2.65;;;;;;;14.21;100.00;100709.00;5073131;28;20036;-53
2023/08/27 06:18:36;;;;;;;6.97;3.20;;;;;;;14.25;100.00;100699.84;5073122;28;20044;-55
2023/08/27 06:21:04;;;;;;;8.18;3.50;;;;;;;14.22;100.00;100700.13;5073348;28;20047;-53
2023/08/27 06:23:33;;;;;;;5.78;3.22;;;;;;;14.29;100.00;100709.22;5072479;28;20056;-51
2023/08/27 06:26:05;;;;;;;7.93;3.40;;;;;;;14.31;100.00;100709.91;5072290;28;20135;-53
2023/08/27 06:28:33;;;;;;;6.87;3.20;;;;;;;14.20;100.00;100712.59;5072815;28;20059;-52
2023/08/27 06:31:02;;;;;;;5.32;3.05;;;;;;;14.21;100.00;100698.44;5072661;28;20545;-53
2023/08/27 06:33:30;;;;;;;5.82;3.03;;;;;;;14.22;100.00;100693.97;5072825;28;20080;-53
2023/08/27 06:35:59;;;;;;;7.75;3.53;;;;;;;14.38;100.00;100694.38;5071407;28;20140;-52
2023/08/27 06:38:27;;;;;;;5.38;3.22;;;;;;;14.43;100.00;100691.34;5072799;28;20131;-53
2023/08/27 06:40:56;;;;;;;7.25;3.55;;;;;;;14.58;100.00;100694.50;5072460;28;20049;-52
2023/08/27 06:43:24;;;;;;;6.25;3.55;;;;;;;14.66;100.00;100687.63;5072629;28;20044;-54
2023/08/27 06:45:54;;;;;;;6.00;3.20;;;;;;;14.69;100.00;100690.00;5072445;28;20102;-54
2023/08/27 06:48:23;;;;;;;6.13;3.20;;;;;;;14.76;100.00;100698.25;5072406;28;20114;-54
2023/08/27 06:50:51;;;;;;;8.75;3.65;;;;;;;14.90;100.00;100688.31;5072023;28;20044;-53
2023/08/27 06:53:20;;;;;;;5.47;2.90;;;;;;;14.92;100.00;100694.31;5072619;28;20397;-52
2023/08/27 06:55:48;;;;;;;5.97;3.20;;;;;;;14.96;100.00;100693.91;5072270;28;20044;-54
2023/08/27 06:58:17;;;;;;;6.53;2.92;;;;;;;15.04;100.00;100691.44;5070888;28;20056;-53
2023/08/27 07:00:46;;;;;;;5.85;3.38;;;;;;;15.11;100.00;100686.44;5072120;28;20052;-53
2023/08/27 07:03:14;;;;;;;5.63;3.55;;;;;;;15.20;100.00;100688.31;5068912;28;20573;-54
2023/08/27 07:05:42;;;;;;;6.65;3.17;;;;;;;15.34;100.00;100684.44;5068407;28;20507;-54
2023/08/27 07:08:10;;;;;;;6.60;2.88;;;;;;;15.45;100.00;100693.28;5071242;28;20127;-54
2023/08/27 07:10:40;;;;;;;5.25;2.83;;;;;;;15.55;100.00;100687.00;5067895;28;20052;-54
2023/08/27 07:13:08;;;;;;;6.20;2.97;;;;;;;15.68;100.00;100686.75;5070420;28;20040;-54
2023/08/27 07:15:36;;;;;;;5.75;2.65;;;;;;;15.85;100.00;100687.09;5070687;28;20454;-54
2023/08/27 07:18:04;;;;;;;5.65;2.65;;;;;;;15.85;100.00;100689.75;5071797;28;20392;-52
2023/08/27 07:20:34;;;;;;;5.82;2.95;;;;;;;15.94;100.00;100694.22;5067914;28;20052;-54
2023/08/27 07:23:05;;;;;;;8.38;3.17;;;;;;;16.11;100.00;100695.31;5066799;28;20048;-54
2023/08/27 07:25:35;;;;;;;5.72;2.60;;;;;;;16.22;100.00;100697.84;5068043;28;20415;-55
2023/08/27 07:28:05;;;;;;;7.55;2.92;;;;;;;16.27;100.00;100700.09;5068955;28;20047;-54
2023/08/27 07:30:36;;;;;;;8.43;3.30;;;;;;;16.33;100.00;100698.66;5067342;28;20059;-53
2023/08/27 07:33:06;;;;;;;6.45;3.10;;;;;;;16.38;100.00;100701.75;5071296;28;20045;-52
2023/08/27 07:35:36;;;;;;;5.55;3.15;;;;;;;16.52;100.00;100697.81;5071651;28;20040;-52
2023/08/27 07:38:04;;;;;;;6.03;2.80;;;;;;;16.66;100.00;100705.34;5071601;28;20052;-52
2023/08/27 07:40:35;;;;;;;6.85;3.08;;;;;;;16.72;100.00;100706.59;5071524;28;20044;-55
2023/08/27 07:43:05;;;;;;;7.30;3.55;;;;;;;16.85;100.00;100708.91;5071535;28;20056;-54
2023/08/27 07:45:34;;;;;;;6.57;3.30;;;;;;;16.98;100.00;100706.81;5071503;28;20054;-55
2023/08/27 07:48:02;;;;;;;6.88;3.30;;;;;;;17.00;100.00;100711.97;5071688;28;20254;-55
2023/08/27 07:50:31;;;;;;;6.28;3.55;;;;;;;17.17;100.00;100715.72;5071378;28;20505;-55
2023/08/27 07:52:59;;;;;;;8.35;3.65;;;;;;;17.20;100.00;100712.75;5071946;28;20074;-54
2023/08/27 07:55:31;;;;;;;9.15;4.03;;;;;;;17.40;100.00;100700.22;5071644;28;20049;-56
2023/08/27 07:57:59;;;;;;;7.18;3.75;;;;;;;17.63;100.00;100705.09;5070907;28;20589;-55
2023/08/27 08:00:29;;;;;;;9.70;4.50;;;;;;;17.77;100.00;100693.13;5070789;28;20045;-55
2023/08/27 08:02:57;;;;;;;10.68;4.20;;;;;;;17.84;100.00;100694.19;5070511;28;20067;-56
2023/08/27 08:05:26;;;;;;;10.65;4.13;;;;;;;17.81;100.00;100700.66;5071446;28;20052;-55
2023/08/27 08:07:54;;;;;;;8.05;3.63;;;;;;;18.02;100.00;100696.88;5071677;28;20059;-55
2023/08/27 08:10:22;;;;;;;9.60;3.72;;;;;;;18.12;100.00;100689.69;5071421;28;20511;-55
2023/08/27 08:12:50;;;;;;;7.65;3.35;;;;;;;18.07;100.00;100694.63;5071376;28;20040;-56
2023/08/27 08:15:19;;;;;;;7.15;3.67;;;;;;;18.18;100.00;100694.38;5071204;28;20052;-54
2023/08/27 08:17:48;;;;;;;9.32;3.17;;;;;;;18.43;100.00;100699.88;5071156;28;20499;-56
2023/08/27 08:20:17;;;;;;;7.25;3.13;;;;;;;18.48;100.00;100696.78;5071278;28;20571;-55
2023/08/27 08:22:45;;;;;;;7.20;3.20;;;;;;;18.34;100.00;100695.50;5071133;28;20052;-55
2023/08/27 08:25:13;;;;;;;7.68;2.58;;;;;;;18.15;100.00;100691.19;5070026;28;20253;-56
2023/08/27 08:27:44;;;;;;;8.00;3.05;;;;;;;18.16;100.00;100693.69;5071090;28;20036;-55
2023/08/27 08:30:14;;;;;;;6.38;3.10;;;;;;;18.21;100.00;100691.41;5071287;28;20412;-55
2023/08/27 08:32:42;;;;;;;8.95;3.55;;;;;;;18.27;100.00;100691.78;5070951;28;20064;-55
2023/08/27 08:35:12;;;;;;;7.40;2.97;;;;;;;18.52;100.00;100698.97;5070596;28;20102;-54
2023/08/27 08:37:41;;;;;;;7.43;3.00;;;;;;;18.68;100.00;100692.06;5071079;28;20518;-55
2023/08/27 08:40:11;;;;;;;8.52;2.70;;;;;;;18.95;100.00;100688.47;5070911;28;20056;-55
2023/08/27 08:42:48;;;;;;;7.03;3.08;;;;;;;18.97;100.00;100693.63;5070105;28;20424;-54
2023/08/27 08:45:22;;;;;;;10.27;3.38;;;;;;;19.08;100.00;100693.34;5070970;28;20068;-56
2023/08/27 08:47:54;;;;;;;6.28;3.20;;;;;;;19.36;100.00;100693.97;5071039;28;20051;-53
2023/08/27 08:50:25;;;;;;;8.68;3.15;;;;;;;19.53;100.00;100694.00;5071113;28;20048;-55
2023/08/27 08:52:56;;;;;;;9.55;3.00;;;;;;;19.68;100.00;100699.56;5070933;28;20048;-54
2023/08/27 08:55:26;;;;;;;7.25;2.92;;;;;;;19.94;100.00;100694.13;5071092;28;20135;-54
2023/08/27 08:57:59;;;;;;;7.53;2.83;;;;;;;20.21;100.00;100706.31;5070598;28;20040;-55
2023/08/27 09:00:28;;;;;;;8.15;2.47;;;;;;;20.25;100.00;100696.97;5071065;28;20071;-55
2023/08/27 09:03:01;;;;;;;6.45;2.53;;;;;;;20.32;100.00;100697.13;5070859;28;20052;-55
2023/08/27 09:05:32;;;;;;;5.50;2.08;;;;;;;20.59;100.00;100695.13;5070731;28;20443;-55
2023/08/27 09:08:01;;;;;;;3.95;1.83;;;;;;;20.48;100.00;100693.63;5070823;28;20072;-54
2023/08/27 09:10:31;;;;;;;5.57;1.90;;;;;;;20.24;100.00;100689.13;5070718;28;20047;-55
2023/08/27 09:13:04;;;;;;;5.60;2.00;;;;;;;20.39;100.00;100691.97;5070762;28;20040;-56
2023/08/27 09:15:33;;;;;;;5.88;1.88;;;;;;;20.92;100.00;100684.38;5074259;28;20048;-55
2023/08/27 09:18:02;;;;;;;4.32;2.05;;;;;;;21.04;100.00;100680.34;5074330;28;20376;-55
2023/08/27 09:20:32;;;;;;;7.13;2.00;;;;;;;21.08;100.00;100673.63;5074227;28;20049;-55
2023/08/27 09:23:01;;;;;;;6.43;2.13;;;;;;;21.15;100.00;100678.31;5074082;28;20053;-56
2023/08/27 09:25:29;;;;;;;5.70;2.17;;;;;;;21.39;100.00;100666.63;5074500;28;20065;-55
2023/08/27 09:27:57;;;;;;;5.32;1.70;;;;;;;21.43;100.00;100678.66;5074142;28;20098;-56
2023/08/27 09:30:27;;;;;;;7.32;2.00;;;;;;;21.61;100.00;100670.41;5073836;28;20052;-55
2023/08/27 09:32:55;;;;;;;6.18;1.67;;;;;;;21.75;100.00;100672.31;5074010;28;20487;-55
2023/08/27 09:35:24;;;;;;;5.43;1.58;;;;;;;21.59;100.00;100664.38;5074375;28;20487;-55
2023/08/27 09:37:58;;;;;;;4.70;1.50;;;;;;;21.70;100.00;100666.66;5073786;28;20044;-55
2023/08/27 09:40:26;;;;;;;5.13;1.65;;;;;;;21.48;100.00;100668.25;5073480;28;20086;-56
2023/08/27 09:43:04;;;;;;;4.38;1.70;;;;;;;21.45;100.00;100660.59;5073773;28;20083;-54
2023/08/27 09:45:33;;;;;;;6.22;1.80;;;;;;;21.51;100.00;100659.88;5073602;28;20046;-56
2023/08/27 09:48:02;;;;;;;4.10;1.55;;;;;;;21.55;100.00;100660.41;5073866;28;20036;-55
2023/08/27 09:50:32;;;;;;;3.72;1.40;;;;;;;21.68;100.00;100655.31;5073883;28;20072;-55
2023/08/27 09:53:11;;;;;;;5.10;1.80;;;;;;;21.47;100.00;100649.72;5072270;28;20415;-55
2023/08/27 09:55:40;;;;;;;5.78;1.80;;;;;;;21.58;100.00;100649.34;5073812;28;20044;-56
2023/08/27 09:58:10;;;;;;;4.60;1.60;;;;;;;21.31;100.00;100645.28;5073544;28;20049;-55
2023/08/27 10:00:39;;;;;;;4.13;1.33;;;;;;;21.17;100.00;100645.00;5071987;28;20082;-55
2023/08/27 10:03:07;;;;;;;4.63;1.40;;;;;;;21.28;100.00;100644.66;5073416;28;20055;-55
2023/08/27 10:05:35;;;;;;;7.15;1.90;;;;;;;21.40;100.00;100642.38;5071972;28;20052;-56
2023/08/27 10:08:05;;;;;;;4.45;1.40;;;;;;;21.79;100.00;100646.03;5068581;28;20092;-56
2023/08/27 10:10:36;;;;;;;5.07;1.50;;;;;;;22.27;100.00;100649.31;5071905;28;20059;-55
2023/08/27 10:13:05;;;;;;;5.00;1.20;;;;;;;22.17;100.00;100651.41;5073286;28;20049;-56
2023/08/27 10:15:36;;;;;;;3.63;1.48;;;;;;;22.32;100.00;100650.59;5073152;28;20098;-56
2023/08/27 10:18:13;;;;;;;3.70;1.17;;;;;;;22.42;100.00;100646.69;5073123;28;20036;-54
2023/08/27 10:20:43;;;;;;;3.50;1.27;;;;;;;22.00;100.00;100649.88;5073069;28;20044;-56
2023/08/27 10:23:11;;;;;;;4.63;1.27;;;;;;;22.38;100.00;100644.56;5073131;28;20041;-56
2023/08/27 10:25:42;;;;;;;4.57;1.58;;;;;;;22.61;100.00;100642.63;5068873;28;20044;-55
2023/08/27 10:28:12;;;;;;;3.55;1.17;;;;;;;23.02;100.00;100646.69;5069797;28;20045;-56
2023/08/27 10:30:43;;;;;;;2.88;1.20;;;;;;;22.95;100.00;100641.25;5068650;28;20052;-55
2023/08/27 10:33:11;;;;;;;3.08;1.30;;;;;;;22.71;100.00;100645.03;5069222;28;20044;-56
2023/08/27 10:35:42;;;;;;;2.85;0.90;;;;;;;22.33;100.00;100645.06;5068933;28;20407;-56
2023/08/27 10:38:11;;;;;;;3.85;1.40;;;;;;;22.19;100.00;100643.19;5072118;28;20514;-56
2023/08/27 10:40:44;;;;;;;4.38;1.50;;;;;;;21.99;100.00;100645.53;5072585;28;20049;-55
2023/08/27 10:43:18;;;;;;;5.15;1.35;;;;;;;21.85;100.00;100645.31;5072751;28;20106;-56
2023/08/27 10:45:48;;;;;;;4.40;1.40;;;;;;;21.87;100.00;100651.31;5072466;28;20594;-55
2023/08/27 10:48:30;;;;;;;4.10;1.33;;;;;;;21.42;100.00;100647.59;5072643;28;20044;-56
2023/08/27 10:51:21;;;;;;;7.25;1.60;;;;;;;21.46;100.00;100654.25;5072659;28;20565;-56
2023/08/27 10:53:57;;;;;;;2.70;0.88;;;;;;;20.83;100.00;100669.38;5065197;28;20551;-55
2023/08/27 10:56:36;;;;;;;1.60;0.70;;;;;;;20.34;100.00;100667.59;5072476;28;20582;-55
2023/08/27 10:59:09;;;;;;;2.03;0.80;;;;;;;19.92;100.00;100659.59;5072351;28;20515;-55
2023/08/27 11:01:38;;;;;;;2.53;1.10;;;;;;;20.20;100.00;100656.59;5070737;28;20131;-55
2023/08/27 11:04:09;;;;;;;1.50;0.88;;;;;;;19.94;100.00;100659.44;5069006;28;20044;-55
2023/08/27 11:06:40;;;;;;;1.83;0.90;;;;;;;19.95;100.00;100653.09;5070565;28;20044;-55
2023/08/27 11:09:17;;;;;;;2.88;0.93;;;;;;;19.37;100.00;100652.97;5072070;28;20114;-56
2023/08/27 11:11:53;;;;;;;2.25;1.13;;;;;;;19.20;100.00;100659.25;5072035;28;20388;-55
2023/08/27 11:14:23;;;;;;;3.92;1.10;;;;;;;19.49;100.00;100660.66;5070772;28;20063;-56
2023/08/27 11:16:55;;;;;;;4.32;0.90;;;;;;;19.63;100.00;100660.00;5071864;28;20131;-56
2023/08/27 11:19:29;;;;;;;1.85;1.00;;;;;;;19.42;100.00;100644.47;5072088;28;20040;-55
2023/08/27 11:22:10;;;;;;;3.78;1.17;;;;;;;19.45;100.00;100646.00;5072107;28;20051;-55
2023/08/27 11:24:43;;;;;;;3.63;1.15;;;;;;;19.00;100.00;100650.66;5072337;28;20045;-55
2023/08/27 11:27:15;;;;;;;2.28;1.10;;;;;;;19.12;100.00;100662.69;5071854;28;20044;-56
2023/08/27 11:29:46;;;;;;;1.92;1.05;;;;;;;19.04;100.00;100678.66;5071895;28;20041;-56
2023/08/27 11:32:15;;;;;;;1.98;0.85;;;;;;;18.96;100.00;100675.97;5071487;28;20056;-55